createdAt,value
2022-09-17T00:00:11.204Z,12.19
2022-09-17T00:02:37.439Z,12.20
2022-09-17T00:05:03.704Z,12.16
2022-09-17T00:07:29.892Z,12.23
2022-09-17T00:09:56.110Z,12.18
2022-09-17T00:12:22.302Z,12.19
2022-09-17T00:14:48.496Z,12.25
2022-09-17T00:17:14.691Z,12.15
2022-09-17T00:19:40.890Z,12.12
2022-09-17T00:22:07.088Z,12.10
2022-09-17T00:24:33.273Z,12.13
2022-09-17T00:26:59.473Z,12.13
2022-09-17T00:29:25.670Z,12.10
2022-09-17T00:31:51.883Z,12.11
2022-09-17T00:34:18.069Z,12.13
2022-09-17T00:36:44.278Z,12.08
2022-09-17T00:39:13.113Z,12.16
2022-09-17T00:41:39.366Z,12.18
2022-09-17T00:44:28.850Z,12.11
2022-09-17T00:46:55.081Z,12.11
2022-09-17T00:49:22.811Z,12.12
2022-09-17T00:51:52.137Z,12.16
2022-09-17T00:54:18.799Z,12.19
2022-09-17T00:56:44.996Z,12.20
2022-09-17T00:59:11.195Z,12.15
2022-09-17T01:01:37.465Z,12.22
2022-09-17T01:04:03.708Z,12.23
2022-09-17T01:06:32.630Z,12.27
2022-09-17T01:09:08.006Z,12.24
2022-09-17T01:11:56.285Z,12.23
2022-09-17T01:14:25.441Z,12.23
2022-09-17T01:16:54.449Z,12.21
2022-09-17T01:19:38.970Z,12.27
2022-09-17T01:22:17.433Z,12.29
2022-09-17T01:24:50.439Z,12.23
2022-09-17T01:27:16.582Z,12.26
2022-09-17T01:30:01.388Z,12.27
2022-09-17T01:32:38.616Z,12.28
2022-09-17T01:35:25.066Z,12.26
2022-09-17T01:37:56.554Z,12.26
2022-09-17T01:40:27.093Z,12.30
2022-09-17T01:43:12.115Z,12.35
2022-09-17T01:45:39.310Z,12.29
2022-09-17T01:48:07.471Z,12.30
2022-09-17T01:50:36.781Z,12.27
2022-09-17T01:53:02.976Z,12.31
2022-09-17T01:55:31.007Z,12.32
2022-09-17T01:58:05.105Z,12.26
2022-09-17T02:00:31.350Z,12.28
2022-09-17T02:03:00.173Z,12.28
2022-09-17T02:05:31.564Z,12.31
2022-09-17T02:08:05.485Z,12.31
2022-09-17T02:10:33.201Z,12.31
2022-09-17T02:13:02.972Z,12.27
2022-09-17T02:15:31.045Z,12.25
2022-09-17T02:18:07.038Z,12.25
2022-09-17T02:20:35.843Z,12.22
2022-09-17T02:23:02.718Z,12.14
2022-09-17T02:25:33.714Z,12.12
2022-09-17T02:27:59.844Z,12.07
2022-09-17T02:30:26.094Z,12.05
2022-09-17T02:32:53.269Z,12.04
2022-09-17T02:35:19.471Z,12.03
2022-09-17T02:37:45.674Z,12.02
2022-09-17T02:40:12.529Z,12.02
2022-09-17T02:43:17.245Z,11.99
2022-09-17T02:45:49.666Z,12.05
2022-09-17T02:48:18.773Z,12.00
2022-09-17T02:50:48.192Z,11.91
2022-09-17T02:53:14.329Z,11.97
2022-09-17T02:55:50.510Z,11.92
2022-09-17T02:58:16.656Z,11.95
2022-09-17T03:00:43.270Z,11.95
2022-09-17T03:03:32.819Z,11.99
2022-09-17T03:05:59.020Z,11.99
2022-09-17T03:08:35.084Z,11.94
2022-09-17T03:11:01.291Z,11.92
2022-09-17T03:13:27.478Z,11.96
2022-09-17T03:15:53.711Z,11.95
2022-09-17T03:18:19.928Z,11.98
2022-09-17T03:20:46.307Z,11.98
2022-09-17T03:23:12.489Z,12.05
2022-09-17T03:25:38.681Z,12.03
2022-09-17T03:28:04.873Z,12.02
2022-09-17T03:30:31.073Z,11.99
2022-09-17T03:32:57.273Z,12.03
2022-09-17T03:35:23.471Z,12.04
2022-09-17T03:37:49.664Z,12.01
2022-09-17T03:40:15.914Z,11.98
2022-09-17T03:42:42.211Z,11.95
2022-09-17T03:45:08.544Z,11.93
2022-09-17T03:47:34.750Z,11.95
2022-09-17T03:50:00.938Z,11.92
2022-09-17T03:52:27.146Z,11.91
2022-09-17T03:54:53.350Z,11.93
2022-09-17T03:57:19.560Z,11.97
2022-09-17T03:59:45.749Z,11.99
2022-09-17T04:02:12.006Z,12.02
2022-09-17T04:04:38.214Z,12.06
2022-09-17T04:07:04.645Z,12.11
2022-09-17T04:09:30.830Z,12.08
2022-09-17T04:11:57.040Z,12.13
2022-09-17T04:14:23.241Z,12.13
2022-09-17T04:16:49.441Z,12.16
2022-09-17T04:19:15.633Z,12.17
2022-09-17T04:21:41.841Z,12.20
2022-09-17T04:24:08.039Z,12.17
2022-09-17T04:26:34.227Z,12.20
2022-09-17T04:29:00.428Z,12.16
2022-09-17T04:31:26.642Z,12.17
2022-09-17T04:33:53.200Z,12.16
2022-09-17T04:36:19.391Z,12.15
2022-09-17T04:38:47.969Z,12.12
2022-09-17T04:41:14.165Z,12.14
2022-09-17T04:43:40.384Z,12.19
2022-09-17T04:46:06.609Z,12.18
2022-09-17T04:48:32.838Z,12.18
2022-09-17T04:50:59.068Z,12.18
2022-09-17T04:53:25.303Z,12.18
2022-09-17T04:55:51.509Z,12.16
2022-09-17T04:58:17.706Z,12.16
2022-09-17T05:00:43.967Z,12.18
2022-09-17T05:03:10.213Z,12.20
2022-09-17T05:05:36.396Z,12.17
2022-09-17T05:08:02.626Z,12.16
2022-09-17T05:10:28.831Z,12.13
2022-09-17T05:12:55.507Z,12.18
2022-09-17T05:15:21.952Z,12.20
2022-09-17T05:17:48.179Z,12.20
2022-09-17T05:20:14.480Z,12.21
2022-09-17T05:22:41.946Z,12.18
2022-09-17T05:25:08.326Z,12.17
2022-09-17T05:27:34.539Z,12.17
2022-09-17T05:30:00.771Z,12.22
2022-09-17T05:32:26.984Z,12.18
2022-09-17T05:34:53.173Z,12.17
2022-09-17T05:37:19.398Z,12.12
2022-09-17T05:39:45.592Z,12.15
2022-09-17T05:42:11.793Z,12.19
2022-09-17T05:44:37.979Z,12.18
2022-09-17T05:47:04.210Z,12.21
2022-09-17T05:49:30.413Z,12.20
2022-09-17T05:51:56.606Z,12.18
2022-09-17T05:54:22.815Z,12.18
2022-09-17T05:56:50.134Z,12.22
2022-09-17T05:59:16.332Z,12.22
2022-09-17T06:01:42.562Z,12.16
2022-09-17T06:04:08.972Z,12.13
2022-09-17T06:06:35.170Z,12.18
2022-09-17T06:09:01.386Z,12.20
2022-09-17T06:11:27.587Z,12.23
2022-09-17T06:13:54.057Z,12.27
2022-09-17T06:16:20.567Z,12.16
2022-09-17T06:18:46.830Z,12.24
2022-09-17T06:21:13.024Z,12.31
2022-09-17T06:23:39.266Z,12.33
2022-09-17T06:26:05.560Z,12.40
2022-09-17T06:28:31.831Z,12.36
2022-09-17T06:31:01.584Z,12.33
2022-09-17T06:33:27.824Z,12.41
2022-09-17T06:35:57.476Z,12.43
2022-09-17T06:38:23.673Z,12.46
2022-09-17T06:40:52.709Z,12.49
2022-09-17T06:43:19.233Z,12.52
2022-09-17T06:45:58.709Z,12.48
2022-09-17T06:48:24.978Z,12.44
2022-09-17T06:50:51.227Z,12.44
2022-09-17T06:53:17.424Z,12.40
2022-09-17T06:55:43.682Z,12.44
2022-09-17T06:58:09.883Z,12.51
2022-09-17T07:00:36.125Z,12.50
2022-09-17T07:03:02.362Z,12.44
2022-09-17T07:05:28.678Z,12.40
2022-09-17T07:07:54.890Z,12.43
2022-09-17T07:10:21.278Z,12.36
2022-09-17T07:12:49.970Z,12.46
2022-09-17T07:15:16.387Z,12.49
2022-09-17T07:17:42.581Z,12.58
2022-09-17T07:20:09.102Z,12.53
2022-09-17T07:22:35.493Z,12.61
2022-09-17T07:25:01.770Z,12.66
2022-09-17T07:27:28.256Z,12.67
2022-09-17T07:29:54.505Z,12.68
2022-09-17T07:32:20.902Z,12.63
2022-09-17T07:34:47.122Z,12.71
2022-09-17T07:37:13.332Z,12.76
2022-09-17T07:39:39.542Z,12.70
2022-09-17T07:42:05.813Z,12.73
2022-09-17T07:44:32.012Z,12.83
2022-09-17T07:46:58.259Z,12.90
2022-09-17T07:49:24.518Z,13.04
2022-09-17T07:51:50.707Z,13.14
2022-09-17T07:54:16.912Z,13.16
2022-09-17T07:56:43.098Z,13.26
2022-09-17T07:59:09.452Z,13.31
2022-09-17T08:01:35.741Z,13.19
2022-09-17T08:04:02.107Z,13.22
2022-09-17T08:06:28.692Z,13.26
2022-09-17T08:08:58.014Z,13.40
2022-09-17T08:11:51.810Z,13.64
2022-09-17T08:14:11.765Z,14.03
2022-09-17T08:16:38.060Z,14.22
2022-09-17T08:19:04.299Z,14.01
2022-09-17T08:21:30.503Z,14.02
2022-09-17T08:23:56.727Z,14.07
2022-09-17T08:26:22.950Z,14.32
2022-09-17T08:28:49.981Z,14.09
2022-09-17T08:31:19.321Z,14.09
2022-09-17T08:33:45.710Z,14.01
2022-09-17T08:36:12.829Z,14.02
2022-09-17T08:38:39.280Z,14.00
2022-09-17T08:41:05.431Z,13.95
2022-09-17T08:43:35.799Z,14.04
2022-09-17T08:46:02.041Z,13.99
2022-09-17T08:48:31.038Z,13.93
2022-09-17T08:51:02.396Z,14.01
2022-09-17T08:53:39.682Z,14.12
2022-09-17T08:56:08.438Z,14.05
2022-09-17T08:58:50.919Z,14.15
2022-09-17T09:01:20.492Z,14.25
2022-09-17T09:04:04.338Z,14.26
2022-09-17T09:06:31.685Z,14.22
2022-09-17T09:08:59.762Z,14.33
2022-09-17T09:11:28.736Z,14.40
2022-09-17T09:13:55.960Z,14.35
2022-09-17T09:16:23.100Z,14.20
2022-09-17T09:18:55.828Z,14.11
2022-09-17T09:21:39.356Z,14.11
2022-09-17T09:24:25.834Z,14.14
2022-09-17T09:27:10.706Z,14.38
2022-09-17T09:29:36.866Z,14.51
2022-09-17T09:32:29.095Z,14.63
2022-09-17T09:34:55.431Z,14.53
2022-09-17T09:37:23.765Z,14.45
2022-09-17T09:39:50.639Z,14.28
2022-09-17T09:42:23.156Z,14.26
2022-09-17T09:44:49.353Z,14.33
2022-09-17T09:47:27.748Z,14.41
2022-09-17T09:50:06.207Z,14.51
2022-09-17T09:52:51.226Z,14.54
2022-09-17T09:55:32.548Z,14.52
2022-09-17T09:58:07.999Z,14.68
2022-09-17T10:00:43.185Z,14.72
2022-09-17T10:03:15.068Z,14.75
2022-09-17T10:05:51.450Z,14.80
2022-09-17T10:08:17.655Z,14.80
2022-09-17T10:10:53.776Z,14.83
2022-09-17T10:13:19.966Z,14.73
2022-09-17T10:15:46.241Z,14.72
2022-09-17T10:18:22.163Z,14.93
2022-09-17T10:20:48.787Z,14.96
2022-09-17T10:23:14.987Z,14.88
2022-09-17T10:25:41.978Z,14.81
2022-09-17T10:28:21.114Z,14.90
2022-09-17T10:31:08.495Z,14.73
2022-09-17T10:33:35.125Z,14.70
2022-09-17T10:36:08.169Z,14.69
2022-09-17T10:38:41.155Z,14.71
2022-09-17T10:41:14.771Z,15.17
2022-09-17T10:43:41.012Z,15.45
2022-09-17T10:46:11.108Z,15.71
2022-09-17T10:48:44.262Z,15.44
2022-09-17T10:51:10.822Z,15.23
2022-09-17T10:54:12.610Z,15.10
2022-09-17T10:56:39.957Z,15.03
2022-09-17T10:59:24.777Z,15.05
2022-09-17T11:01:57.980Z,15.09
2022-09-17T11:04:46.640Z,15.06
2022-09-17T11:07:16.897Z,15.23
2022-09-17T11:09:46.122Z,15.29
2022-09-17T11:12:15.814Z,15.38
2022-09-17T11:14:45.017Z,15.34
2022-09-17T11:17:31.445Z,15.37
2022-09-17T11:20:16.642Z,15.51
2022-09-17T11:22:45.845Z,15.77
2022-09-17T11:25:21.017Z,15.78
2022-09-17T11:27:47.152Z,15.74
2022-09-17T11:30:16.097Z,15.77
2022-09-17T11:32:48.487Z,15.92
2022-09-17T11:35:17.503Z,15.50
2022-09-17T11:37:44.846Z,15.19
2022-09-17T11:40:11.057Z,15.22
2022-09-17T11:42:52.246Z,15.24
2022-09-17T11:45:19.105Z,15.45
2022-09-17T11:47:49.944Z,15.55
2022-09-17T11:50:16.162Z,15.66
2022-09-17T11:52:43.758Z,15.68
2022-09-17T11:55:18.337Z,15.64
2022-09-17T11:57:44.537Z,15.56
2022-09-17T12:00:14.341Z,15.57
2022-09-17T12:02:43.564Z,15.40
2022-09-17T12:05:30.011Z,15.34
2022-09-17T12:07:58.981Z,15.34
2022-09-17T12:10:25.123Z,15.26
2022-09-17T12:12:56.725Z,15.27
2022-09-17T12:15:23.958Z,15.23
2022-09-17T12:18:31.087Z,15.22
2022-09-17T12:20:55.493Z,15.25
2022-09-17T12:23:30.721Z,15.25
2022-09-17T12:26:00.702Z,15.24
2022-09-17T12:28:47.134Z,15.16
2022-09-17T12:31:16.566Z,15.13
2022-09-17T12:33:53.794Z,15.21
2022-09-17T12:36:29.081Z,15.25
2022-09-17T12:39:14.174Z,15.33
2022-09-17T12:41:49.789Z,15.39
2022-09-17T12:44:15.947Z,15.47
2022-09-17T12:46:45.269Z,15.64
2022-09-17T12:49:30.381Z,15.94
2022-09-17T12:51:57.466Z,15.81
2022-09-17T12:54:35.899Z,15.99
2022-09-17T12:57:11.706Z,15.88
2022-09-17T12:59:40.366Z,15.75
2022-09-17T13:02:15.940Z,15.68
2022-09-17T13:05:00.938Z,15.54
2022-09-17T13:07:32.504Z,15.32
2022-09-17T13:10:14.014Z,15.34
2022-09-17T13:12:47.633Z,15.50
2022-09-17T13:15:32.598Z,15.32
2022-09-17T13:18:22.858Z,15.34
2022-09-17T13:21:06.036Z,15.24
2022-09-17T13:23:39.942Z,15.22
2022-09-17T13:26:06.385Z,15.27
2022-09-17T13:28:47.538Z,15.36
2022-09-17T13:31:18.957Z,15.32
2022-09-17T13:33:48.209Z,15.26
2022-09-17T13:36:32.881Z,15.25
2022-09-17T13:38:59.365Z,15.14
2022-09-17T13:41:25.628Z,15.14
2022-09-17T13:43:51.817Z,15.13
2022-09-17T13:46:20.854Z,15.09
2022-09-17T13:48:47.715Z,15.00
2022-09-17T13:51:42.282Z,14.79
2022-09-17T13:54:08.766Z,14.63
2022-09-17T13:56:38.718Z,14.71
2022-09-17T13:59:08.273Z,14.64
2022-09-17T14:01:53.391Z,14.46
2022-09-17T14:04:35.339Z,14.50
2022-09-17T14:07:01.544Z,14.55
2022-09-17T14:09:54.227Z,14.57
2022-09-17T14:12:23.013Z,14.48
2022-09-17T14:14:50.696Z,14.48
2022-09-17T14:17:36.846Z,14.39
2022-09-17T14:20:03.071Z,14.35
2022-09-17T14:22:29.271Z,14.41
2022-09-17T14:24:55.494Z,14.42
2022-09-17T14:27:24.694Z,14.42
2022-09-17T14:30:07.118Z,14.46
2022-09-17T14:32:33.259Z,14.47
2022-09-17T14:35:03.011Z,14.48
2022-09-17T14:37:29.214Z,14.40
2022-09-17T14:39:55.452Z,14.45
2022-09-17T14:42:26.718Z,14.39
2022-09-17T14:44:57.190Z,14.47
2022-09-17T14:47:23.376Z,14.44
2022-09-17T14:49:49.577Z,14.39
2022-09-17T14:52:28.713Z,14.33
2022-09-17T14:55:13.130Z,14.33
2022-09-17T14:57:39.333Z,14.43
2022-09-17T15:00:10.235Z,14.46
2022-09-17T15:02:37.246Z,14.46
2022-09-17T15:05:16.781Z,14.43
2022-09-17T15:07:45.166Z,14.53
2022-09-17T15:10:13.300Z,14.48
2022-09-17T15:12:39.501Z,14.48
2022-09-17T15:15:05.858Z,14.34
2022-09-17T15:17:32.045Z,14.23
2022-09-17T15:19:58.247Z,14.26
2022-09-17T15:22:32.719Z,14.17
2022-09-17T15:25:00.112Z,14.22
2022-09-17T15:27:27.401Z,14.32
2022-09-17T15:30:06.686Z,14.38
2022-09-17T15:32:33.076Z,14.40
2022-09-17T15:35:11.357Z,14.35
2022-09-17T15:38:11.506Z,14.36
2022-09-17T15:40:33.539Z,14.25
2022-09-17T15:43:06.228Z,14.25
2022-09-17T15:45:33.125Z,14.22
2022-09-17T15:47:59.683Z,14.15
2022-09-17T15:50:26.939Z,14.05
2022-09-17T15:53:11.874Z,14.06
2022-09-17T15:55:44.714Z,14.08
2022-09-17T15:58:24.404Z,14.12
2022-09-17T16:01:09.441Z,14.05
2022-09-17T16:03:38.373Z,14.03
2022-09-17T16:06:11.091Z,14.02
2022-09-17T16:08:37.309Z,14.06
2022-09-17T16:11:03.504Z,14.08
2022-09-17T16:13:29.703Z,14.01
2022-09-17T16:15:55.980Z,13.99
2022-09-17T16:18:22.226Z,13.93
2022-09-17T16:20:48.454Z,13.89
2022-09-17T16:23:14.664Z,13.86
2022-09-17T16:25:40.853Z,13.88
2022-09-17T16:28:09.560Z,13.87
2022-09-17T16:30:35.752Z,13.84
2022-09-17T16:33:01.948Z,13.88
2022-09-17T16:35:28.134Z,13.88
2022-09-17T16:37:54.644Z,13.82
2022-09-17T16:40:21.448Z,13.77
2022-09-17T16:42:47.738Z,13.74
2022-09-17T16:45:14.077Z,13.75
2022-09-17T16:47:40.507Z,13.72
2022-09-17T16:50:07.696Z,13.73
2022-09-17T16:52:34.212Z,13.71
2022-09-17T16:55:00.410Z,13.68
2022-09-17T16:57:26.610Z,13.61
2022-09-17T16:59:52.821Z,13.47
2022-09-17T17:02:19.017Z,13.43
2022-09-17T17:04:45.239Z,13.38
2022-09-17T17:07:11.438Z,13.36
2022-09-17T17:09:37.656Z,13.34
2022-09-17T17:12:03.873Z,13.31
2022-09-17T17:14:30.089Z,13.30
2022-09-17T17:16:56.332Z,13.28
2022-09-17T17:19:22.574Z,13.23
2022-09-17T17:21:51.910Z,13.24
2022-09-17T17:24:18.158Z,13.23
2022-09-17T17:26:44.348Z,13.14
2022-09-17T17:29:10.565Z,13.16
2022-09-17T17:31:36.795Z,13.20
2022-09-17T17:34:03.042Z,13.21
2022-09-17T17:36:29.237Z,13.24
2022-09-17T17:38:56.121Z,13.25
2022-09-17T17:41:22.318Z,13.21
2022-09-17T17:43:48.574Z,13.18
2022-09-17T17:46:14.869Z,13.06
2022-09-17T17:48:41.098Z,13.01
2022-09-17T17:51:07.782Z,12.99
2022-09-17T17:53:34.072Z,12.94
2022-09-17T17:56:00.968Z,12.92
2022-09-17T17:58:27.169Z,12.92
2022-09-17T18:00:53.356Z,12.95
2022-09-17T18:03:19.557Z,12.92
2022-09-17T18:05:45.798Z,12.89
2022-09-17T18:08:11.983Z,12.88
2022-09-17T18:10:38.189Z,12.85
2022-09-17T18:13:04.395Z,12.80
2022-09-17T18:15:30.600Z,12.81
2022-09-17T18:17:56.792Z,12.81
2022-09-17T18:20:23.010Z,12.76
2022-09-17T18:22:49.219Z,12.61
2022-09-17T18:25:15.438Z,12.65
2022-09-17T18:27:41.639Z,12.71
2022-09-17T18:30:08.162Z,12.62
2022-09-17T18:32:34.362Z,12.62
2022-09-17T18:35:00.558Z,12.61
2022-09-17T18:37:28.012Z,12.63
2022-09-17T18:39:58.520Z,12.66
2022-09-17T18:42:25.481Z,12.70
2022-09-17T18:44:51.680Z,12.66
2022-09-17T18:47:17.871Z,12.60
2022-09-17T18:49:44.072Z,12.60
2022-09-17T18:52:10.256Z,12.58
2022-09-17T18:54:36.480Z,12.50
2022-09-17T18:57:02.670Z,12.48
2022-09-17T18:59:28.875Z,12.46
2022-09-17T19:01:55.150Z,12.41
2022-09-17T19:04:21.378Z,12.41
2022-09-17T19:06:47.560Z,12.40
2022-09-17T19:09:13.761Z,12.41
2022-09-17T19:11:39.956Z,12.45
2022-09-17T19:14:06.164Z,12.37
2022-09-17T19:16:32.426Z,12.33
2022-09-17T19:18:58.707Z,12.15
2022-09-17T19:21:24.903Z,12.14
2022-09-17T19:23:51.479Z,12.23
2022-09-17T19:26:21.706Z,12.31
2022-09-17T19:28:47.980Z,12.35
2022-09-17T19:31:14.962Z,12.37
2022-09-17T19:33:41.235Z,12.38
2022-09-17T19:36:08.140Z,12.35
2022-09-17T19:38:34.328Z,12.29
2022-09-17T19:41:01.300Z,12.10
2022-09-17T19:43:27.504Z,11.90
2022-09-17T19:45:59.813Z,11.84
2022-09-17T19:48:26.002Z,11.74
2022-09-17T19:50:52.609Z,11.71
2022-09-17T19:53:18.916Z,11.70
2022-09-17T19:55:45.176Z,11.60
2022-09-17T19:58:11.624Z,11.48
2022-09-17T20:00:37.826Z,11.39
2022-09-17T20:03:04.359Z,11.19
2022-09-17T20:05:30.661Z,11.30
2022-09-17T20:07:56.995Z,11.22
2022-09-17T20:10:23.307Z,11.39
2022-09-17T20:12:49.506Z,11.63
2022-09-17T20:15:15.718Z,11.68
2022-09-17T20:17:41.910Z,11.80
2022-09-17T20:20:08.381Z,11.53
2022-09-17T20:22:34.574Z,11.53
2022-09-17T20:25:00.773Z,11.68
2022-09-17T20:27:26.955Z,11.58
2022-09-17T20:29:53.160Z,11.71
2022-09-17T20:32:19.353Z,11.67
2022-09-17T20:34:45.551Z,11.75
2022-09-17T20:37:13.484Z,11.84
2022-09-17T20:39:40.140Z,11.91
2022-09-17T20:42:06.333Z,11.79
2022-09-17T20:44:32.533Z,11.88
2022-09-17T20:46:58.762Z,11.92
2022-09-17T20:49:24.988Z,11.81
2022-09-17T20:51:51.173Z,11.84
2022-09-17T20:54:17.373Z,11.83
2022-09-17T20:56:43.558Z,11.86
2022-09-17T20:59:11.391Z,11.92
2022-09-17T21:01:37.895Z,11.87
2022-09-17T21:04:05.168Z,11.82
2022-09-17T21:06:31.995Z,11.87
2022-09-17T21:08:58.299Z,11.89
2022-09-17T21:11:24.490Z,11.89
2022-09-17T21:13:50.702Z,11.90
2022-09-17T21:16:16.984Z,11.91
2022-09-17T21:18:43.244Z,11.90
2022-09-17T21:21:13.275Z,11.95
2022-09-17T21:23:40.675Z,11.92
2022-09-17T21:26:11.203Z,11.90
2022-09-17T21:28:37.388Z,11.87
2022-09-17T21:31:04.533Z,11.86
2022-09-17T21:33:30.756Z,11.76
2022-09-17T21:36:01.507Z,11.74
2022-09-17T21:38:27.692Z,11.65
2022-09-17T21:40:54.445Z,11.68
2022-09-17T21:43:20.633Z,11.64
2022-09-17T21:45:46.834Z,11.64
2022-09-17T21:48:13.026Z,11.60
2022-09-17T21:50:39.226Z,11.58
2022-09-17T21:53:05.431Z,11.60
2022-09-17T21:55:31.629Z,11.59
2022-09-17T21:57:57.826Z,11.60
2022-09-17T22:00:24.022Z,11.61
2022-09-17T22:02:50.270Z,11.64
2022-09-17T22:05:16.531Z,11.69
2022-09-17T22:07:42.724Z,11.66
2022-09-17T22:10:09.142Z,11.72
2022-09-17T22:12:35.346Z,11.74
2022-09-17T22:15:01.565Z,11.77
2022-09-17T22:17:27.751Z,11.74
2022-09-17T22:19:53.949Z,11.73
2022-09-17T22:22:20.133Z,11.67
2022-09-17T22:24:46.329Z,11.63
2022-09-17T22:27:12.530Z,11.67
2022-09-17T22:29:38.742Z,11.73
2022-09-17T22:32:04.999Z,11.79
2022-09-17T22:34:31.197Z,11.75
2022-09-17T22:36:57.387Z,11.78
2022-09-17T22:39:23.597Z,11.77
2022-09-17T22:41:49.796Z,11.70
2022-09-17T22:44:16.727Z,11.71
2022-09-17T22:46:43.125Z,11.69
2022-09-17T22:49:09.982Z,11.71
2022-09-17T22:51:36.181Z,11.71
2022-09-17T22:54:02.421Z,11.72
2022-09-17T22:56:28.638Z,11.72
2022-09-17T22:58:57.832Z,11.72
2022-09-17T23:01:25.206Z,11.75
2022-09-17T23:03:51.752Z,11.75
2022-09-17T23:06:18.703Z,11.72
2022-09-17T23:08:44.906Z,11.77
2022-09-17T23:11:20.855Z,11.76
2022-09-17T23:13:47.454Z,11.76
2022-09-17T23:16:13.752Z,11.77
2022-09-17T23:18:40.035Z,11.73
2022-09-17T23:21:06.967Z,11.71
2022-09-17T23:23:33.417Z,11.73
2022-09-17T23:26:09.883Z,11.70
2022-09-17T23:28:36.090Z,11.71
2022-09-17T23:31:18.378Z,11.72
2022-09-17T23:33:44.625Z,11.66
2022-09-17T23:36:14.761Z,11.62
2022-09-17T23:38:41.571Z,11.64
2022-09-17T23:41:20.481Z,11.65
2022-09-17T23:43:47.373Z,11.60
2022-09-17T23:46:13.705Z,11.60
2022-09-17T23:48:39.951Z,11.57
2022-09-17T23:51:06.166Z,11.58
2022-09-17T23:53:32.576Z,11.61
2022-09-17T23:55:58.779Z,11.55
2022-09-17T23:58:24.971Z,11.55
